sensor_id;sensor_type;location;lat;lon;timestamp;temperature;humidity
28552;DHT22;15752;49.560;8.708;2022-07-03T00:00:05;21.60;86.20
28552;DHT22;15752;49.560;8.708;2022-07-03T00:02:40;21.50;86.50
28552;DHT22;15752;49.560;8.708;2022-07-03T00:05:09;21.50;86.50
28552;DHT22;15752;49.560;8.708;2022-07-03T00:07:38;21.40;87.00
28552;DHT22;15752;49.560;8.708;2022-07-03T00:10:09;21.40;87.00
28552;DHT22;15752;49.560;8.708;2022-07-03T00:12:38;21.40;87.60
28552;DHT22;15752;49.560;8.708;2022-07-03T00:15:08;21.40;87.50
28552;DHT22;15752;49.560;8.708;2022-07-03T00:17:37;21.30;88.10
28552;DHT22;15752;49.560;8.708;2022-07-03T00:20:07;21.30;87.80
28552;DHT22;15752;49.560;8.708;2022-07-03T00:22:41;21.30;88.20
28552;DHT22;15752;49.560;8.708;2022-07-03T00:25:13;21.30;88.60
28552;DHT22;15752;49.560;8.708;2022-07-03T00:27:43;21.20;88.70
28552;DHT22;15752;49.560;8.708;2022-07-03T00:30:12;21.20;89.20
28552;DHT22;15752;49.560;8.708;2022-07-03T00:32:42;21.20;88.80
28552;DHT22;15752;49.560;8.708;2022-07-03T00:35:16;21.20;89.10
28552;DHT22;15752;49.560;8.708;2022-07-03T00:37:45;21.10;89.50
28552;DHT22;15752;49.560;8.708;2022-07-03T00:40:15;21.10;89.20
28552;DHT22;15752;49.560;8.708;2022-07-03T00:42:44;21.10;89.80
28552;DHT22;15752;49.560;8.708;2022-07-03T00:45:20;21.00;90.00
28552;DHT22;15752;49.560;8.708;2022-07-03T00:47:49;21.00;90.20
28552;DHT22;15752;49.560;8.708;2022-07-03T00:50:24;21.00;90.00
28552;DHT22;15752;49.560;8.708;2022-07-03T00:52:55;20.90;90.50
28552;DHT22;15752;49.560;8.708;2022-07-03T00:55:28;20.90;90.10
28552;DHT22;15752;49.560;8.708;2022-07-03T00:57:57;20.90;90.30
28552;DHT22;15752;49.560;8.708;2022-07-03T01:00:25;20.80;90.20
28552;DHT22;15752;49.560;8.708;2022-07-03T01:02:56;20.80;90.40
28552;DHT22;15752;49.560;8.708;2022-07-03T01:05:36;20.80;90.60
28552;DHT22;15752;49.560;8.708;2022-07-03T01:08:12;20.70;90.60
28552;DHT22;15752;49.560;8.708;2022-07-03T01:10:53;20.70;90.80
28552;DHT22;15752;49.560;8.708;2022-07-03T01:13:31;20.70;91.00
28552;DHT22;15752;49.560;8.708;2022-07-03T01:16:07;20.70;90.80
28552;DHT22;15752;49.560;8.708;2022-07-03T01:18:45;20.70;90.80
28552;DHT22;15752;49.560;8.708;2022-07-03T01:21:42;20.60;91.10
28552;DHT22;15752;49.560;8.708;2022-07-03T01:24:36;20.60;91.00
28552;DHT22;15752;49.560;8.708;2022-07-03T01:27:18;20.50;91.00
28552;DHT22;15752;49.560;8.708;2022-07-03T01:29:55;20.50;91.10
28552;DHT22;15752;49.560;8.708;2022-07-03T01:32:31;20.50;91.00
28552;DHT22;15752;49.560;8.708;2022-07-03T01:35:01;20.40;91.10
28552;DHT22;15752;49.560;8.708;2022-07-03T01:37:34;20.40;91.10
28552;DHT22;15752;49.560;8.708;2022-07-03T01:40:04;20.40;91.20
28552;DHT22;15752;49.560;8.708;2022-07-03T01:42:36;20.40;91.20
28552;DHT22;15752;49.560;8.708;2022-07-03T01:45:08;20.30;91.30
28552;DHT22;15752;49.560;8.708;2022-07-03T01:47:40;20.30;91.30
28552;DHT22;15752;49.560;8.708;2022-07-03T01:50:11;20.30;91.30
28552;DHT22;15752;49.560;8.708;2022-07-03T01:52:42;20.20;91.40
28552;DHT22;15752;49.560;8.708;2022-07-03T01:55:13;20.20;91.40
28552;DHT22;15752;49.560;8.708;2022-07-03T01:57:46;20.20;91.60
28552;DHT22;15752;49.560;8.708;2022-07-03T02:00:18;20.20;91.90
28552;DHT22;15752;49.560;8.708;2022-07-03T02:02:54;20.20;91.80
28552;DHT22;15752;49.560;8.708;2022-07-03T02:05:34;20.10;91.80
28552;DHT22;15752;49.560;8.708;2022-07-03T02:08:22;20.10;91.90
28552;DHT22;15752;49.560;8.708;2022-07-03T02:11:08;20.10;92.00
28552;DHT22;15752;49.560;8.708;2022-07-03T02:13:50;20.10;92.00
28552;DHT22;15752;49.560;8.708;2022-07-03T02:16:23;20.10;92.00
28552;DHT22;15752;49.560;8.708;2022-07-03T02:18:57;20.10;91.80
28552;DHT22;15752;49.560;8.708;2022-07-03T02:21:28;20.10;92.00
28552;DHT22;15752;49.560;8.708;2022-07-03T02:24:16;20.00;91.90
28552;DHT22;15752;49.560;8.708;2022-07-03T02:26:54;20.00;92.20
28552;DHT22;15752;49.560;8.708;2022-07-03T02:29:31;20.00;92.10
28552;DHT22;15752;49.560;8.708;2022-07-03T02:32:04;20.00;92.10
28552;DHT22;15752;49.560;8.708;2022-07-03T02:34:35;19.90;92.40
28552;DHT22;15752;49.560;8.708;2022-07-03T02:37:10;19.90;91.90
28552;DHT22;15752;49.560;8.708;2022-07-03T02:39:44;19.90;92.10
28552;DHT22;15752;49.560;8.708;2022-07-03T02:42:35;19.90;92.20
28552;DHT22;15752;49.560;8.708;2022-07-03T02:45:09;19.80;92.20
28552;DHT22;15752;49.560;8.708;2022-07-03T02:47:59;19.80;92.30
28552;DHT22;15752;49.560;8.708;2022-07-03T02:50:31;19.80;92.40
28552;DHT22;15752;49.560;8.708;2022-07-03T02:53:04;19.80;92.20
28552;DHT22;15752;49.560;8.708;2022-07-03T02:55:42;19.80;92.50
28552;DHT22;15752;49.560;8.708;2022-07-03T02:58:28;19.70;92.60
28552;DHT22;15752;49.560;8.708;2022-07-03T03:01:09;19.70;92.60
28552;DHT22;15752;49.560;8.708;2022-07-03T03:03:58;19.70;92.60
28552;DHT22;15752;49.560;8.708;2022-07-03T03:06:36;19.60;92.60
28552;DHT22;15752;49.560;8.708;2022-07-03T03:09:08;19.60;92.60
28552;DHT22;15752;49.560;8.708;2022-07-03T03:11:43;19.60;92.80
28552;DHT22;15752;49.560;8.708;2022-07-03T03:14:14;19.60;92.60
28552;DHT22;15752;49.560;8.708;2022-07-03T03:16:52;19.60;92.80
28552;DHT22;15752;49.560;8.708;2022-07-03T03:19:22;19.50;92.90
28552;DHT22;15752;49.560;8.708;2022-07-03T03:21:57;19.50;92.80
28552;DHT22;15752;49.560;8.708;2022-07-03T03:24:31;19.50;92.90
28552;DHT22;15752;49.560;8.708;2022-07-03T03:27:01;19.50;92.70
28552;DHT22;15752;49.560;8.708;2022-07-03T03:29:31;19.40;92.80
28552;DHT22;15752;49.560;8.708;2022-07-03T03:32:03;19.40;92.80
28552;DHT22;15752;49.560;8.708;2022-07-03T03:34:33;19.40;93.00
28552;DHT22;15752;49.560;8.708;2022-07-03T03:37:02;19.30;92.90
28552;DHT22;15752;49.560;8.708;2022-07-03T03:39:31;19.30;92.80
28552;DHT22;15752;49.560;8.708;2022-07-03T03:42:00;19.30;92.90
28552;DHT22;15752;49.560;8.708;2022-07-03T03:44:29;19.30;92.90
28552;DHT22;15752;49.560;8.708;2022-07-03T03:46:58;19.30;93.20
28552;DHT22;15752;49.560;8.708;2022-07-03T03:49:28;19.20;92.90
28552;DHT22;15752;49.560;8.708;2022-07-03T03:51:57;19.20;93.10
28552;DHT22;15752;49.560;8.708;2022-07-03T03:54:26;19.20;93.00
28552;DHT22;15752;49.560;8.708;2022-07-03T03:56:55;19.20;93.10
28552;DHT22;15752;49.560;8.708;2022-07-03T03:59:24;19.20;93.10
28552;DHT22;15752;49.560;8.708;2022-07-03T04:01:52;19.20;93.10
28552;DHT22;15752;49.560;8.708;2022-07-03T04:04:21;19.20;93.10
28552;DHT22;15752;49.560;8.708;2022-07-03T04:06:52;19.20;93.20
28552;DHT22;15752;49.560;8.708;2022-07-03T04:09:21;19.10;93.40
28552;DHT22;15752;49.560;8.708;2022-07-03T04:11:50;19.10;93.20
28552;DHT22;15752;49.560;8.708;2022-07-03T04:14:18;19.10;93.30
28552;DHT22;15752;49.560;8.708;2022-07-03T04:16:47;19.10;93.30
28552;DHT22;15752;49.560;8.708;2022-07-03T04:19:16;19.10;93.40
28552;DHT22;15752;49.560;8.708;2022-07-03T04:21:45;19.10;93.40
28552;DHT22;15752;49.560;8.708;2022-07-03T04:24:15;19.10;93.40
28552;DHT22;15752;49.560;8.708;2022-07-03T04:26:43;19.10;93.60
28552;DHT22;15752;49.560;8.708;2022-07-03T04:29:12;19.10;93.50
28552;DHT22;15752;49.560;8.708;2022-07-03T04:31:41;19.10;93.60
28552;DHT22;15752;49.560;8.708;2022-07-03T04:34:10;19.10;93.60
28552;DHT22;15752;49.560;8.708;2022-07-03T04:36:39;19.10;93.60
28552;DHT22;15752;49.560;8.708;2022-07-03T04:39:07;19.10;93.60
28552;DHT22;15752;49.560;8.708;2022-07-03T04:41:38;19.10;93.60
28552;DHT22;15752;49.560;8.708;2022-07-03T04:44:06;19.10;93.80
28552;DHT22;15752;49.560;8.708;2022-07-03T04:46:35;19.10;93.70
28552;DHT22;15752;49.560;8.708;2022-07-03T04:49:04;19.10;93.80
28552;DHT22;15752;49.560;8.708;2022-07-03T04:51:33;19.10;93.90
28552;DHT22;15752;49.560;8.708;2022-07-03T04:54:02;19.20;93.90
28552;DHT22;15752;49.560;8.708;2022-07-03T04:56:31;19.10;93.90
28552;DHT22;15752;49.560;8.708;2022-07-03T04:59:01;19.10;94.00
28552;DHT22;15752;49.560;8.708;2022-07-03T05:01:29;19.10;94.10
28552;DHT22;15752;49.560;8.708;2022-07-03T05:03:58;19.10;94.00
28552;DHT22;15752;49.560;8.708;2022-07-03T05:06:27;19.10;94.00
28552;DHT22;15752;49.560;8.708;2022-07-03T05:08:56;19.20;94.10
28552;DHT22;15752;49.560;8.708;2022-07-03T05:11:24;19.20;94.10
28552;DHT22;15752;49.560;8.708;2022-07-03T05:13:53;19.20;94.10
28552;DHT22;15752;49.560;8.708;2022-07-03T05:16:23;19.20;94.10
28552;DHT22;15752;49.560;8.708;2022-07-03T05:18:52;19.20;94.20
28552;DHT22;15752;49.560;8.708;2022-07-03T05:21:20;19.30;94.20
28552;DHT22;15752;49.560;8.708;2022-07-03T05:23:49;19.30;94.20
28552;DHT22;15752;49.560;8.708;2022-07-03T05:26:18;19.30;94.20
28552;DHT22;15752;49.560;8.708;2022-07-03T05:28:47;19.30;94.40
28552;DHT22;15752;49.560;8.708;2022-07-03T05:31:16;19.30;94.40
28552;DHT22;15752;49.560;8.708;2022-07-03T05:33:46;19.40;94.40
28552;DHT22;15752;49.560;8.708;2022-07-03T05:36:15;19.40;94.50
28552;DHT22;15752;49.560;8.708;2022-07-03T05:38:44;19.40;94.40
28552;DHT22;15752;49.560;8.708;2022-07-03T05:41:30;19.50;94.40
28552;DHT22;15752;49.560;8.708;2022-07-03T05:43:58;19.50;94.40
28552;DHT22;15752;49.560;8.708;2022-07-03T05:46:27;19.50;94.50
28552;DHT22;15752;49.560;8.708;2022-07-03T05:48:57;19.50;94.30
28552;DHT22;15752;49.560;8.708;2022-07-03T05:51:26;19.60;94.40
28552;DHT22;15752;49.560;8.708;2022-07-03T05:53:55;19.60;94.20
28552;DHT22;15752;49.560;8.708;2022-07-03T05:56:23;19.70;94.20
28552;DHT22;15752;49.560;8.708;2022-07-03T05:58:52;19.70;94.30
28552;DHT22;15752;49.560;8.708;2022-07-03T06:01:21;19.70;94.30
28552;DHT22;15752;49.560;8.708;2022-07-03T06:03:50;19.70;94.20
28552;DHT22;15752;49.560;8.708;2022-07-03T06:06:20;19.80;94.30
28552;DHT22;15752;49.560;8.708;2022-07-03T06:08:49;19.80;94.40
28552;DHT22;15752;49.560;8.708;2022-07-03T06:11:18;19.90;94.30
28552;DHT22;15752;49.560;8.708;2022-07-03T06:13:47;19.90;94.30
28552;DHT22;15752;49.560;8.708;2022-07-03T06:16:15;20.00;94.30
28552;DHT22;15752;49.560;8.708;2022-07-03T06:18:44;20.00;94.30
28552;DHT22;15752;49.560;8.708;2022-07-03T06:21:13;20.10;94.30
28552;DHT22;15752;49.560;8.708;2022-07-03T06:23:43;20.20;94.40
28552;DHT22;15752;49.560;8.708;2022-07-03T06:26:13;20.20;94.70
28552;DHT22;15752;49.560;8.708;2022-07-03T06:28:42;20.30;94.50
28552;DHT22;15752;49.560;8.708;2022-07-03T06:31:11;20.40;94.50
28552;DHT22;15752;49.560;8.708;2022-07-03T06:33:40;20.50;94.40
28552;DHT22;15752;49.560;8.708;2022-07-03T06:36:09;20.50;94.20
28552;DHT22;15752;49.560;8.708;2022-07-03T06:38:37;20.60;94.20
28552;DHT22;15752;49.560;8.708;2022-07-03T06:41:07;20.70;94.20
28552;DHT22;15752;49.560;8.708;2022-07-03T06:43:36;20.70;94.40
28552;DHT22;15752;49.560;8.708;2022-07-03T06:46:05;20.80;94.30
28552;DHT22;15752;49.560;8.708;2022-07-03T06:48:34;20.90;94.20
28552;DHT22;15752;49.560;8.708;2022-07-03T06:51:03;20.90;94.10
28552;DHT22;15752;49.560;8.708;2022-07-03T06:53:31;21.00;94.00
28552;DHT22;15752;49.560;8.708;2022-07-03T06:56:00;21.10;93.70
28552;DHT22;15752;49.560;8.708;2022-07-03T06:58:30;21.20;93.70
28552;DHT22;15752;49.560;8.708;2022-07-03T07:00:59;21.30;93.50
28552;DHT22;15752;49.560;8.708;2022-07-03T07:03:28;21.50;93.40
28552;DHT22;15752;49.560;8.708;2022-07-03T07:05:57;21.50;93.50
28552;DHT22;15752;49.560;8.708;2022-07-03T07:08:26;21.70;93.30
28552;DHT22;15752;49.560;8.708;2022-07-03T07:10:55;21.80;93.10
28552;DHT22;15752;49.560;8.708;2022-07-03T07:13:23;21.90;92.90
28552;DHT22;15752;49.560;8.708;2022-07-03T07:15:53;22.00;92.80
28552;DHT22;15752;49.560;8.708;2022-07-03T07:18:22;22.10;92.90
28552;DHT22;15752;49.560;8.708;2022-07-03T07:20:51;22.20;92.80
28552;DHT22;15752;49.560;8.708;2022-07-03T07:23:20;22.30;92.40
28552;DHT22;15752;49.560;8.708;2022-07-03T07:25:48;22.40;92.40
28552;DHT22;15752;49.560;8.708;2022-07-03T07:28:17;22.50;92.20
28552;DHT22;15752;49.560;8.708;2022-07-03T07:30:46;22.60;92.30
28552;DHT22;15752;49.560;8.708;2022-07-03T07:33:16;22.70;92.30
28552;DHT22;15752;49.560;8.708;2022-07-03T07:35:45;22.80;92.20
28552;DHT22;15752;49.560;8.708;2022-07-03T07:38:14;22.90;92.10
28552;DHT22;15752;49.560;8.708;2022-07-03T07:40:42;23.00;92.00
28552;DHT22;15752;49.560;8.708;2022-07-03T07:43:11;23.10;92.00
28552;DHT22;15752;49.560;8.708;2022-07-03T07:45:40;23.20;92.10
28552;DHT22;15752;49.560;8.708;2022-07-03T07:48:09;23.30;92.00
28552;DHT22;15752;49.560;8.708;2022-07-03T07:50:39;23.40;92.00
28552;DHT22;15752;49.560;8.708;2022-07-03T07:53:08;23.50;91.80
28552;DHT22;15752;49.560;8.708;2022-07-03T07:55:37;23.50;91.60
28552;DHT22;15752;49.560;8.708;2022-07-03T07:58:05;23.60;91.50
28552;DHT22;15752;49.560;8.708;2022-07-03T08:00:34;23.70;91.40
28552;DHT22;15752;49.560;8.708;2022-07-03T08:03:03;23.80;91.40
28552;DHT22;15752;49.560;8.708;2022-07-03T08:05:51;23.90;91.20
28552;DHT22;15752;49.560;8.708;2022-07-03T08:08:20;24.10;91.20
28552;DHT22;15752;49.560;8.708;2022-07-03T08:10:49;24.20;91.10
28552;DHT22;15752;49.560;8.708;2022-07-03T08:13:18;24.30;90.90
28552;DHT22;15752;49.560;8.708;2022-07-03T08:15:48;24.40;90.80
28552;DHT22;15752;49.560;8.708;2022-07-03T08:18:16;24.50;90.70
28552;DHT22;15752;49.560;8.708;2022-07-03T08:20:45;24.60;90.60
28552;DHT22;15752;49.560;8.708;2022-07-03T08:23:15;24.70;90.60
28552;DHT22;15752;49.560;8.708;2022-07-03T08:25:44;24.80;90.50
28552;DHT22;15752;49.560;8.708;2022-07-03T08:28:13;24.90;90.30
28552;DHT22;15752;49.560;8.708;2022-07-03T08:30:42;25.00;90.50
28552;DHT22;15752;49.560;8.708;2022-07-03T08:33:10;25.00;89.70
28552;DHT22;15752;49.560;8.708;2022-07-03T08:35:39;25.10;89.10
28552;DHT22;15752;49.560;8.708;2022-07-03T08:38:08;25.20;88.80
28552;DHT22;15752;49.560;8.708;2022-07-03T08:40:39;25.30;88.80
28552;DHT22;15752;49.560;8.708;2022-07-03T08:43:08;25.40;88.40
28552;DHT22;15752;49.560;8.708;2022-07-03T08:45:37;25.40;88.50
28552;DHT22;15752;49.560;8.708;2022-07-03T08:48:07;25.50;88.20
28552;DHT22;15752;49.560;8.708;2022-07-03T08:50:38;25.60;87.80
28552;DHT22;15752;49.560;8.708;2022-07-03T08:53:10;25.70;87.60
28552;DHT22;15752;49.560;8.708;2022-07-03T08:55:40;25.70;87.80
28552;DHT22;15752;49.560;8.708;2022-07-03T08:58:10;25.80;88.00
28552;DHT22;15752;49.560;8.708;2022-07-03T09:00:40;25.90;88.30
28552;DHT22;15752;49.560;8.708;2022-07-03T09:03:11;26.00;88.70
28552;DHT22;15752;49.560;8.708;2022-07-03T09:05:41;26.00;87.80
28552;DHT22;15752;49.560;8.708;2022-07-03T09:08:10;26.10;87.40
28552;DHT22;15752;49.560;8.708;2022-07-03T09:10:40;26.10;86.90
28552;DHT22;15752;49.560;8.708;2022-07-03T09:13:11;26.20;86.80
28552;DHT22;15752;49.560;8.708;2022-07-03T09:15:40;26.30;86.40
28552;DHT22;15752;49.560;8.708;2022-07-03T09:18:09;26.40;86.70
28552;DHT22;15752;49.560;8.708;2022-07-03T09:20:39;26.40;85.30
28552;DHT22;15752;49.560;8.708;2022-07-03T09:23:13;26.50;84.80
28552;DHT22;15752;49.560;8.708;2022-07-03T09:25:55;26.60;84.80
28552;DHT22;15752;49.560;8.708;2022-07-03T09:28:42;26.60;84.00
28552;DHT22;15752;49.560;8.708;2022-07-03T09:31:13;26.70;84.40
28552;DHT22;15752;49.560;8.708;2022-07-03T09:33:57;26.80;84.00
28552;DHT22;15752;49.560;8.708;2022-07-03T09:36:40;26.90;83.70
28552;DHT22;15752;49.560;8.708;2022-07-03T09:39:15;27.00;83.50
28552;DHT22;15752;49.560;8.708;2022-07-03T09:41:54;27.10;81.90
28552;DHT22;15752;49.560;8.708;2022-07-03T09:44:31;27.10;82.20
28552;DHT22;15752;49.560;8.708;2022-07-03T09:47:12;27.20;81.70
28552;DHT22;15752;49.560;8.708;2022-07-03T09:49:47;27.30;81.30
28552;DHT22;15752;49.560;8.708;2022-07-03T09:52:32;27.30;81.50
28552;DHT22;15752;49.560;8.708;2022-07-03T09:55:15;27.40;81.20
28552;DHT22;15752;49.560;8.708;2022-07-03T09:57:58;27.40;80.20
28552;DHT22;15752;49.560;8.708;2022-07-03T10:00:30;27.50;80.10
28552;DHT22;15752;49.560;8.708;2022-07-03T10:03:01;27.50;80.20
28552;DHT22;15752;49.560;8.708;2022-07-03T10:05:32;27.60;79.40
28552;DHT22;15752;49.560;8.708;2022-07-03T10:08:02;27.60;79.50
28552;DHT22;15752;49.560;8.708;2022-07-03T10:10:33;27.70;79.90
28552;DHT22;15752;49.560;8.708;2022-07-03T10:13:05;27.70;78.50
28552;DHT22;15752;49.560;8.708;2022-07-03T10:15:35;27.80;77.90
28552;DHT22;15752;49.560;8.708;2022-07-03T10:18:07;27.80;77.80
28552;DHT22;15752;49.560;8.708;2022-07-03T10:20:39;27.80;77.40
28552;DHT22;15752;49.560;8.708;2022-07-03T10:23:09;27.90;77.10
28552;DHT22;15752;49.560;8.708;2022-07-03T10:25:40;27.90;76.70
28552;DHT22;15752;49.560;8.708;2022-07-03T10:28:12;28.00;76.30
28552;DHT22;15752;49.560;8.708;2022-07-03T10:30:43;28.00;76.20
28552;DHT22;15752;49.560;8.708;2022-07-03T10:33:13;28.10;75.80
28552;DHT22;15752;49.560;8.708;2022-07-03T10:35:44;28.10;75.60
28552;DHT22;15752;49.560;8.708;2022-07-03T10:38:37;28.20;75.10
28552;DHT22;15752;49.560;8.708;2022-07-03T10:41:11;28.30;76.40
28552;DHT22;15752;49.560;8.708;2022-07-03T10:44:03;28.30;75.20
28552;DHT22;15752;49.560;8.708;2022-07-03T10:46:57;28.40;76.00
28552;DHT22;15752;49.560;8.708;2022-07-03T10:49:33;28.40;75.70
28552;DHT22;15752;49.560;8.708;2022-07-03T10:52:04;28.50;76.40
28552;DHT22;15752;49.560;8.708;2022-07-03T10:54:34;28.50;74.50
28552;DHT22;15752;49.560;8.708;2022-07-03T10:57:15;28.50;73.50
28552;DHT22;15752;49.560;8.708;2022-07-03T11:00:15;28.50;72.10
28552;DHT22;15752;49.560;8.708;2022-07-03T11:02:47;28.60;74.10
28552;DHT22;15752;49.560;8.708;2022-07-03T11:05:24;28.70;74.20
28552;DHT22;15752;49.560;8.708;2022-07-03T11:08:10;28.70;73.60
28552;DHT22;15752;49.560;8.708;2022-07-03T11:10:43;28.70;73.50
28552;DHT22;15752;49.560;8.708;2022-07-03T11:13:16;28.70;73.00
28552;DHT22;15752;49.560;8.708;2022-07-03T11:15:52;28.80;73.50
28552;DHT22;15752;49.560;8.708;2022-07-03T11:18:29;28.80;73.50
28552;DHT22;15752;49.560;8.708;2022-07-03T11:21:20;28.80;72.20
28552;DHT22;15752;49.560;8.708;2022-07-03T11:27:22;28.90;71.90
28552;DHT22;15752;49.560;8.708;2022-07-03T11:30:00;29.00;72.00
28552;DHT22;15752;49.560;8.708;2022-07-03T11:35:44;29.00;71.20
28552;DHT22;15752;49.560;8.708;2022-07-03T11:38:27;29.10;71.40
28552;DHT22;15752;49.560;8.708;2022-07-03T11:40:58;29.10;71.80
28552;DHT22;15752;49.560;8.708;2022-07-03T11:43:28;29.10;71.10
28552;DHT22;15752;49.560;8.708;2022-07-03T11:45:57;29.20;70.60
28552;DHT22;15752;49.560;8.708;2022-07-03T11:48:28;29.20;70.40
28552;DHT22;15752;49.560;8.708;2022-07-03T11:51:01;29.30;69.50
28552;DHT22;15752;49.560;8.708;2022-07-03T11:53:32;29.30;69.50
28552;DHT22;15752;49.560;8.708;2022-07-03T11:56:04;29.40;68.60
28552;DHT22;15752;49.560;8.708;2022-07-03T11:58:41;29.40;67.60
28552;DHT22;15752;49.560;8.708;2022-07-03T12:01:28;29.40;68.10
28552;DHT22;15752;49.560;8.708;2022-07-03T12:04:07;29.50;67.20
28552;DHT22;15752;49.560;8.708;2022-07-03T12:06:38;29.50;66.70
28552;DHT22;15752;49.560;8.708;2022-07-03T12:09:17;29.60;66.10
28552;DHT22;15752;49.560;8.708;2022-07-03T12:11:58;29.60;65.00
28552;DHT22;15752;49.560;8.708;2022-07-03T12:14:42;29.60;66.20
28552;DHT22;15752;49.560;8.708;2022-07-03T12:17:14;29.70;66.80
28552;DHT22;15752;49.560;8.708;2022-07-03T12:19:47;29.70;65.20
28552;DHT22;15752;49.560;8.708;2022-07-03T12:22:28;29.80;63.80
28552;DHT22;15752;49.560;8.708;2022-07-03T12:24:59;29.80;64.90
28552;DHT22;15752;49.560;8.708;2022-07-03T12:27:30;29.80;64.10
28552;DHT22;15752;49.560;8.708;2022-07-03T12:29:59;29.90;63.30
28552;DHT22;15752;49.560;8.708;2022-07-03T12:32:29;30.00;62.90
28552;DHT22;15752;49.560;8.708;2022-07-03T12:34:59;30.10;63.90
28552;DHT22;15752;49.560;8.708;2022-07-03T12:37:34;30.10;63.80
28552;DHT22;15752;49.560;8.708;2022-07-03T12:40:06;30.20;63.30
28552;DHT22;15752;49.560;8.708;2022-07-03T12:42:43;30.20;63.30
28552;DHT22;15752;49.560;8.708;2022-07-03T12:45:14;30.30;61.60
28552;DHT22;15752;49.560;8.708;2022-07-03T12:47:44;30.30;62.80
28552;DHT22;15752;49.560;8.708;2022-07-03T12:50:14;30.30;63.20
28552;DHT22;15752;49.560;8.708;2022-07-03T12:52:52;30.30;61.00
28552;DHT22;15752;49.560;8.708;2022-07-03T12:55:25;30.40;62.40
28552;DHT22;15752;49.560;8.708;2022-07-03T12:58:14;30.40;60.60
28552;DHT22;15752;49.560;8.708;2022-07-03T13:01:01;30.50;61.80
28552;DHT22;15752;49.560;8.708;2022-07-03T13:03:34;30.60;60.40
28552;DHT22;15752;49.560;8.708;2022-07-03T13:06:20;30.60;58.90
28552;DHT22;15752;49.560;8.708;2022-07-03T13:08:52;30.70;58.80
28552;DHT22;15752;49.560;8.708;2022-07-03T13:11:26;30.70;58.80
28552;DHT22;15752;49.560;8.708;2022-07-03T13:14:08;30.70;57.30
28552;DHT22;15752;49.560;8.708;2022-07-03T13:16:41;30.70;58.60
28552;DHT22;15752;49.560;8.708;2022-07-03T13:19:12;30.80;58.40
28552;DHT22;15752;49.560;8.708;2022-07-03T13:21:44;30.80;57.90
28552;DHT22;15752;49.560;8.708;2022-07-03T13:24:14;30.90;58.40
28552;DHT22;15752;49.560;8.708;2022-07-03T13:26:44;30.90;57.30
28552;DHT22;15752;49.560;8.708;2022-07-03T13:29:19;30.90;57.80
28552;DHT22;15752;49.560;8.708;2022-07-03T13:31:48;30.90;57.30
28552;DHT22;15752;49.560;8.708;2022-07-03T13:34:17;30.90;56.70
28552;DHT22;15752;49.560;8.708;2022-07-03T13:36:48;30.90;57.60
28552;DHT22;15752;49.560;8.708;2022-07-03T13:39:17;30.90;56.70
28552;DHT22;15752;49.560;8.708;2022-07-03T13:41:46;30.90;56.70
28552;DHT22;15752;49.560;8.708;2022-07-03T13:44:14;30.90;56.90
28552;DHT22;15752;49.560;8.708;2022-07-03T13:46:43;30.90;57.20
28552;DHT22;15752;49.560;8.708;2022-07-03T13:49:17;30.90;57.60
28552;DHT22;15752;49.560;8.708;2022-07-03T13:51:48;30.90;56.90
28552;DHT22;15752;49.560;8.708;2022-07-03T13:54:17;30.90;56.60
28552;DHT22;15752;49.560;8.708;2022-07-03T13:56:45;30.90;57.50
28552;DHT22;15752;49.560;8.708;2022-07-03T13:59:14;31.00;57.10
28552;DHT22;15752;49.560;8.708;2022-07-03T14:01:43;31.00;56.50
28552;DHT22;15752;49.560;8.708;2022-07-03T14:04:12;31.00;56.30
28552;DHT22;15752;49.560;8.708;2022-07-03T14:06:41;31.10;56.60
28552;DHT22;15752;49.560;8.708;2022-07-03T14:09:11;31.10;56.80
28552;DHT22;15752;49.560;8.708;2022-07-03T14:11:40;31.10;56.00
28552;DHT22;15752;49.560;8.708;2022-07-03T14:14:08;31.20;57.10
28552;DHT22;15752;49.560;8.708;2022-07-03T14:16:37;31.20;56.10
28552;DHT22;15752;49.560;8.708;2022-07-03T14:19:06;31.30;55.50
28552;DHT22;15752;49.560;8.708;2022-07-03T14:21:35;31.30;55.20
28552;DHT22;15752;49.560;8.708;2022-07-03T14:24:04;31.40;55.80
28552;DHT22;15752;49.560;8.708;2022-07-03T14:26:35;31.40;55.50
28552;DHT22;15752;49.560;8.708;2022-07-03T14:29:21;31.40;55.10
28552;DHT22;15752;49.560;8.708;2022-07-03T14:32:07;31.50;54.80
28552;DHT22;15752;49.560;8.708;2022-07-03T14:34:53;31.50;54.60
28552;DHT22;15752;49.560;8.708;2022-07-03T14:37:22;31.60;54.90
28552;DHT22;15752;49.560;8.708;2022-07-03T14:39:51;31.60;54.60
28552;DHT22;15752;49.560;8.708;2022-07-03T14:42:22;31.60;54.70
28552;DHT22;15752;49.560;8.708;2022-07-03T14:44:51;31.60;54.60
28552;DHT22;15752;49.560;8.708;2022-07-03T14:47:19;31.70;54.30
28552;DHT22;15752;49.560;8.708;2022-07-03T14:49:49;31.70;55.10
28552;DHT22;15752;49.560;8.708;2022-07-03T14:52:17;31.70;54.30
28552;DHT22;15752;49.560;8.708;2022-07-03T14:54:46;31.70;53.50
28552;DHT22;15752;49.560;8.708;2022-07-03T14:57:26;31.80;53.40
28552;DHT22;15752;49.560;8.708;2022-07-03T15:00:05;31.80;53.40
28552;DHT22;15752;49.560;8.708;2022-07-03T15:02:44;31.80;52.80
28552;DHT22;15752;49.560;8.708;2022-07-03T15:05:14;31.90;52.20
28552;DHT22;15752;49.560;8.708;2022-07-03T15:07:52;31.90;51.60
28552;DHT22;15752;49.560;8.708;2022-07-03T15:10:31;31.90;52.30
28552;DHT22;15752;49.560;8.708;2022-07-03T15:13:04;31.90;51.70
28552;DHT22;15752;49.560;8.708;2022-07-03T15:15:34;31.90;52.10
28552;DHT22;15752;49.560;8.708;2022-07-03T15:18:03;31.90;51.90
28552;DHT22;15752;49.560;8.708;2022-07-03T15:20:36;31.90;52.00
28552;DHT22;15752;49.560;8.708;2022-07-03T15:23:06;32.00;52.90
28552;DHT22;15752;49.560;8.708;2022-07-03T15:25:37;32.00;53.50
28552;DHT22;15752;49.560;8.708;2022-07-03T15:28:10;32.00;53.10
28552;DHT22;15752;49.560;8.708;2022-07-03T15:30:48;32.00;52.10
28552;DHT22;15752;49.560;8.708;2022-07-03T15:33:17;32.00;52.60
28552;DHT22;15752;49.560;8.708;2022-07-03T15:35:49;32.00;53.10
28552;DHT22;15752;49.560;8.708;2022-07-03T15:38:27;32.00;51.70
28552;DHT22;15752;49.560;8.708;2022-07-03T15:41:05;32.00;51.80
28552;DHT22;15752;49.560;8.708;2022-07-03T15:43:48;32.00;51.70
28552;DHT22;15752;49.560;8.708;2022-07-03T15:46:27;32.00;51.90
28552;DHT22;15752;49.560;8.708;2022-07-03T15:49:19;32.00;51.20
28552;DHT22;15752;49.560;8.708;2022-07-03T15:52:05;32.00;52.30
28552;DHT22;15752;49.560;8.708;2022-07-03T15:54:55;32.00;52.70
28552;DHT22;15752;49.560;8.708;2022-07-03T15:57:31;31.90;53.00
28552;DHT22;15752;49.560;8.708;2022-07-03T16:00:07;31.90;53.40
28552;DHT22;15752;49.560;8.708;2022-07-03T16:02:48;31.90;51.90
28552;DHT22;15752;49.560;8.708;2022-07-03T16:05:27;31.90;51.30
28552;DHT22;15752;49.560;8.708;2022-07-03T16:08:06;31.90;50.90
28552;DHT22;15752;49.560;8.708;2022-07-03T16:10:37;31.90;51.50